No.10 Hasshomaru — JD2992 — position and weather

sailwx.info

Track history (hours):
 
Tides and Currents Weather Stations Pressure Air Temp Water Temp Dewpoint Dewpoint Depression Visibility Wind Speed Wind Dir Waves Ship Positions

No.10 Hasshomaru

Last reported at 2016-Jan-03 06:33 UTC. Time now 2016-Feb-09 03:31 UTC.
Position N 36°01' E 140°44'.
Warning: this ship's position is 36 days out of date.

Length 105 m; draft 5.2 m.

Type: Tanker. MMSI: 431001112.

Date/timePositionNaut miles runAvg speedWind from/ knotsBaromVisibWave heightAir tempDewpointWater temp
2016-Jan-03 06:33N 36°01' E 140°44'6 0.9
2016-Jan-02 23:27N 35°55' E 140°41'5 5.7
2016-Jan-02 22:33N 35°58' E 140°46'0 0.0
2016-Jan-02 21:32N 35°58' E 140°46'0 0.0
2016-Jan-02 20:32N 35°58' E 140°46'0 0.1
2016-Jan-02 18:22N 35°58' E 140°47'1214.2
2016-Jan-02 17:31N 35°47' E 140°54'1313.4
2016-Jan-02 16:33N 35°35' E 140°50'1515.0
2016-Jan-02 15:33N 35°23' E 140°39'1615.8
2016-Jan-02 14:34N 35°10' E 140°28'1515.5
2016-Jan-02 13:33N 35°00' E 140°13'1514.3
2016-Jan-02 12:32N 34°52' E 139°58'1313.1
2016-Jan-02 11:33N 34°57' E 139°44'1414.2
2016-Jan-02 10:34N 35°12' E 139°46'1211.9
2016-Jan-02 09:33N 35°23' E 139°42'8 8.0
2016-Jan-02 08:31N 35°31' E 139°46'0 0.0
2016-Jan-02 07:31N 35°31' E 139°46'0 0.0
2016-Jan-02 06:31N 35°31' E 139°46'0 0.0
2016-Jan-02 05:25N 35°31' E 139°46'0 0.0
2016-Jan-02 04:31N 35°31' E 139°46'5 5.5
2016-Jan-02 03:34N 35°26' E 139°43'4 4.1
2016-Jan-02 02:32N 35°22' E 139°45'3 3.6
2016-Jan-02 01:33N 35°19' E 139°44'1212.2
2016-Jan-02 00:34N 35°07' E 139°47'6 0.3
2016-Jan-01 04:14N 35°01' E 139°49'2 0.1
2015-Dec-31 05:33N 35°00' E 139°47'11 8.2
2015-Dec-31 04:14N 34°53' E 139°57'913.9
2015-Dec-31 03:33N 34°57' E 140°07'2611.9
2015-Dec-31 01:21N 35°13' E 140°32'1113.5
2015-Dec-31 00:33N 35°22' E 140°39'1614.1
2015-Dec-30 23:26N 35°35' E 140°51'  
Track history (hours):
 
Tides and Currents Weather Stations Pressure Air Temp Water Temp Dewpoint Dewpoint Depression Visibility Wind Speed Wind Dir Waves Ship Positions

No.10 Hasshomaru

Last reported at 2016-Jan-03 06:33 UTC. Time now 2016-Feb-09 03:31 UTC.
Position N 36°01' E 140°44'.
Warning: this ship's position is 36 days out of date.

Length 105 m; draft 5.2 m.

Type: Tanker. MMSI: 431001112.

Date/timePositionNaut miles runAvg speedWind from/ knotsBaromVisibWave heightAir tempDewpointWater temp
2016-Jan-03 06:33N 36°01' E 140°44'6 0.9
2016-Jan-02 23:27N 35°55' E 140°41'5 5.7
2016-Jan-02 22:33N 35°58' E 140°46'0 0.0
2016-Jan-02 21:32N 35°58' E 140°46'0 0.0
2016-Jan-02 20:32N 35°58' E 140°46'0 0.1
2016-Jan-02 18:22N 35°58' E 140°47'1214.2
2016-Jan-02 17:31N 35°47' E 140°54'1313.4
2016-Jan-02 16:33N 35°35' E 140°50'1515.0
2016-Jan-02 15:33N 35°23' E 140°39'1615.8
2016-Jan-02 14:34N 35°10' E 140°28'1515.5
2016-Jan-02 13:33N 35°00' E 140°13'1514.3
2016-Jan-02 12:32N 34°52' E 139°58'1313.1
2016-Jan-02 11:33N 34°57' E 139°44'1414.2
2016-Jan-02 10:34N 35°12' E 139°46'1211.9
2016-Jan-02 09:33N 35°23' E 139°42'8 8.0
2016-Jan-02 08:31N 35°31' E 139°46'0 0.0
2016-Jan-02 07:31N 35°31' E 139°46'0 0.0
2016-Jan-02 06:31N 35°31' E 139°46'0 0.0
2016-Jan-02 05:25N 35°31' E 139°46'0 0.0
2016-Jan-02 04:31N 35°31' E 139°46'5 5.5
2016-Jan-02 03:34N 35°26' E 139°43'4 4.1
2016-Jan-02 02:32N 35°22' E 139°45'3 3.6
2016-Jan-02 01:33N 35°19' E 139°44'1212.2
2016-Jan-02 00:34N 35°07' E 139°47'6 0.3
2016-Jan-01 04:14N 35°01' E 139°49'2 0.1
2015-Dec-31 05:33N 35°00' E 139°47'11 8.2
2015-Dec-31 04:14N 34°53' E 139°57'913.9
2015-Dec-31 03:33N 34°57' E 140°07'2611.9
2015-Dec-31 01:21N 35°13' E 140°32'1113.5
2015-Dec-31 00:33N 35°22' E 140°39'1614.1
2015-Dec-30 23:26N 35°35' E 140°51'  

Dump ship's entire track history